sensor_id;sensor_type;location;lat;lon;timestamp;P1;durP1;ratioP1;P2;durP2;ratioP2
52104;SDS011;38103;42.776;23.112;2022-09-03T00:00:24;14.63;;;7.28;;
52104;SDS011;38103;42.776;23.112;2022-09-03T00:03:01;13.43;;;6.88;;
52104;SDS011;38103;42.776;23.112;2022-09-03T00:05:39;13.35;;;6.82;;
52104;SDS011;38103;42.776;23.112;2022-09-03T00:11:04;13.27;;;6.60;;
52104;SDS011;38103;42.776;23.112;2022-09-03T00:13:32;14.70;;;7.20;;
52104;SDS011;38103;42.776;23.112;2022-09-03T00:16:02;13.82;;;6.97;;
52104;SDS011;38103;42.776;23.112;2022-09-03T00:18:35;15.15;;;7.35;;
52104;SDS011;38103;42.776;23.112;2022-09-03T00:21:08;13.80;;;7.05;;
52104;SDS011;38103;42.776;23.112;2022-09-03T00:23:40;14.60;;;6.80;;
52104;SDS011;38103;42.776;23.112;2022-09-03T00:26:28;14.52;;;6.95;;
52104;SDS011;38103;42.776;23.112;2022-09-03T00:28:56;13.65;;;6.85;;
52104;SDS011;38103;42.776;23.112;2022-09-03T00:32:00;14.40;;;7.00;;
52104;SDS011;38103;42.776;23.112;2022-09-03T00:34:35;14.85;;;7.18;;
52104;SDS011;38103;42.776;23.112;2022-09-03T00:37:06;15.60;;;8.10;;
52104;SDS011;38103;42.776;23.112;2022-09-03T00:39:32;16.73;;;7.43;;
52104;SDS011;38103;42.776;23.112;2022-09-03T00:50:20;16.10;;;7.82;;
52104;SDS011;38103;42.776;23.112;2022-09-03T00:56:11;17.17;;;7.78;;
52104;SDS011;38103;42.776;23.112;2022-09-03T01:01:55;17.17;;;8.52;;
52104;SDS011;38103;42.776;23.112;2022-09-03T01:04:59;15.70;;;7.80;;
52104;SDS011;38103;42.776;23.112;2022-09-03T01:14:40;16.23;;;7.85;;
52104;SDS011;38103;42.776;23.112;2022-09-03T01:31:07;16.17;;;8.30;;
52104;SDS011;38103;42.776;23.112;2022-09-03T01:33:37;17.73;;;8.48;;
52104;SDS011;38103;42.776;23.112;2022-09-03T01:41:46;17.38;;;8.38;;
52104;SDS011;38103;42.776;23.112;2022-09-03T01:52:48;16.77;;;8.73;;
52104;SDS011;38103;42.776;23.112;2022-09-03T01:58:20;17.95;;;9.43;;
52104;SDS011;38103;42.776;23.112;2022-09-03T02:00:55;18.48;;;8.93;;
52104;SDS011;38103;42.776;23.112;2022-09-03T02:03:24;18.25;;;9.45;;
52104;SDS011;38103;42.776;23.112;2022-09-03T02:05:57;17.25;;;9.25;;
52104;SDS011;38103;42.776;23.112;2022-09-03T02:08:23;22.23;;;9.07;;
52104;SDS011;38103;42.776;23.112;2022-09-03T02:10:52;19.20;;;9.57;;
52104;SDS011;38103;42.776;23.112;2022-09-03T02:13:27;18.35;;;8.45;;
52104;SDS011;38103;42.776;23.112;2022-09-03T02:15:56;16.95;;;9.32;;
52104;SDS011;38103;42.776;23.112;2022-09-03T02:18:35;18.05;;;9.00;;
52104;SDS011;38103;42.776;23.112;2022-09-03T02:21:05;20.13;;;9.43;;
52104;SDS011;38103;42.776;23.112;2022-09-03T02:23:31;20.35;;;9.25;;
52104;SDS011;38103;42.776;23.112;2022-09-03T02:26:01;19.02;;;9.43;;
52104;SDS011;38103;42.776;23.112;2022-09-03T02:28:27;18.10;;;9.13;;
52104;SDS011;38103;42.776;23.112;2022-09-03T02:30:54;18.80;;;9.43;;
52104;SDS011;38103;42.776;23.112;2022-09-03T02:33:20;16.38;;;8.80;;
52104;SDS011;38103;42.776;23.112;2022-09-03T02:35:47;17.60;;;8.55;;
52104;SDS011;38103;42.776;23.112;2022-09-03T02:38:14;19.52;;;9.32;;
52104;SDS011;38103;42.776;23.112;2022-09-03T02:40:41;17.80;;;9.35;;
52104;SDS011;38103;42.776;23.112;2022-09-03T02:43:10;18.10;;;9.00;;
52104;SDS011;38103;42.776;23.112;2022-09-03T02:45:46;17.92;;;9.30;;
52104;SDS011;38103;42.776;23.112;2022-09-03T02:48:15;18.55;;;9.10;;
52104;SDS011;38103;42.776;23.112;2022-09-03T02:50:45;18.38;;;8.90;;
52104;SDS011;38103;42.776;23.112;2022-09-03T02:53:11;18.73;;;9.98;;
52104;SDS011;38103;42.776;23.112;2022-09-03T02:55:36;16.58;;;8.52;;
52104;SDS011;38103;42.776;23.112;2022-09-03T02:58:02;17.33;;;8.57;;
52104;SDS011;38103;42.776;23.112;2022-09-03T03:00:29;21.73;;;9.98;;
52104;SDS011;38103;42.776;23.112;2022-09-03T03:02:55;17.17;;;8.65;;
52104;SDS011;38103;42.776;23.112;2022-09-03T03:05:23;17.30;;;9.18;;
52104;SDS011;38103;42.776;23.112;2022-09-03T03:07:54;18.25;;;8.77;;
52104;SDS011;38103;42.776;23.112;2022-09-03T03:10:20;22.08;;;8.95;;
52104;SDS011;38103;42.776;23.112;2022-09-03T03:12:45;17.15;;;9.20;;
52104;SDS011;38103;42.776;23.112;2022-09-03T03:15:10;16.52;;;8.52;;
52104;SDS011;38103;42.776;23.112;2022-09-03T03:17:36;18.30;;;9.35;;
52104;SDS011;38103;42.776;23.112;2022-09-03T03:20:01;15.57;;;8.27;;
52104;SDS011;38103;42.776;23.112;2022-09-03T03:22:27;19.45;;;9.70;;
52104;SDS011;38103;42.776;23.112;2022-09-03T03:24:52;18.85;;;8.55;;
52104;SDS011;38103;42.776;23.112;2022-09-03T03:27:19;18.45;;;9.07;;
52104;SDS011;38103;42.776;23.112;2022-09-03T03:29:44;16.95;;;8.93;;
52104;SDS011;38103;42.776;23.112;2022-09-03T03:32:11;18.63;;;9.30;;
52104;SDS011;38103;42.776;23.112;2022-09-03T03:34:37;19.35;;;9.98;;
52104;SDS011;38103;42.776;23.112;2022-09-03T03:37:03;25.35;;;10.57;;
52104;SDS011;38103;42.776;23.112;2022-09-03T03:39:29;19.27;;;9.82;;
52104;SDS011;38103;42.776;23.112;2022-09-03T03:41:55;18.13;;;9.55;;
52104;SDS011;38103;42.776;23.112;2022-09-03T03:44:20;23.13;;;10.38;;
52104;SDS011;38103;42.776;23.112;2022-09-03T03:46:45;21.13;;;10.00;;
52104;SDS011;38103;42.776;23.112;2022-09-03T03:49:11;23.10;;;9.65;;
52104;SDS011;38103;42.776;23.112;2022-09-03T03:51:36;19.05;;;9.00;;
52104;SDS011;38103;42.776;23.112;2022-09-03T03:54:02;17.05;;;8.88;;
52104;SDS011;38103;42.776;23.112;2022-09-03T03:56:28;22.17;;;9.68;;
52104;SDS011;38103;42.776;23.112;2022-09-03T03:58:54;18.95;;;9.23;;
52104;SDS011;38103;42.776;23.112;2022-09-03T04:01:21;17.20;;;9.00;;
52104;SDS011;38103;42.776;23.112;2022-09-03T04:03:47;16.65;;;9.18;;
52104;SDS011;38103;42.776;23.112;2022-09-03T04:06:14;16.73;;;8.57;;
52104;SDS011;38103;42.776;23.112;2022-09-03T04:08:42;19.90;;;9.18;;
52104;SDS011;38103;42.776;23.112;2022-09-03T04:11:09;20.40;;;9.65;;
52104;SDS011;38103;42.776;23.112;2022-09-03T04:13:37;18.40;;;9.50;;
52104;SDS011;38103;42.776;23.112;2022-09-03T04:16:08;16.60;;;8.82;;
52104;SDS011;38103;42.776;23.112;2022-09-03T04:18:35;18.05;;;9.65;;
52104;SDS011;38103;42.776;23.112;2022-09-03T04:21:03;16.52;;;8.52;;
52104;SDS011;38103;42.776;23.112;2022-09-03T04:23:31;18.25;;;9.95;;
52104;SDS011;38103;42.776;23.112;2022-09-03T04:26:01;19.30;;;10.00;;
52104;SDS011;38103;42.776;23.112;2022-09-03T04:28:27;17.88;;;9.32;;
52104;SDS011;38103;42.776;23.112;2022-09-03T04:30:52;18.63;;;9.95;;
52104;SDS011;38103;42.776;23.112;2022-09-03T04:33:18;19.52;;;9.80;;
52104;SDS011;38103;42.776;23.112;2022-09-03T04:35:45;18.35;;;9.02;;
52104;SDS011;38103;42.776;23.112;2022-09-03T04:38:10;20.15;;;10.25;;
52104;SDS011;38103;42.776;23.112;2022-09-03T04:40:36;17.63;;;9.50;;
52104;SDS011;38103;42.776;23.112;2022-09-03T04:43:02;16.33;;;9.43;;
52104;SDS011;38103;42.776;23.112;2022-09-03T04:45:28;22.05;;;9.55;;
52104;SDS011;38103;42.776;23.112;2022-09-03T04:47:55;18.30;;;8.90;;
52104;SDS011;38103;42.776;23.112;2022-09-03T04:50:24;18.80;;;8.60;;
52104;SDS011;38103;42.776;23.112;2022-09-03T04:52:51;16.52;;;8.95;;
52104;SDS011;38103;42.776;23.112;2022-09-03T04:55:16;16.67;;;8.57;;
52104;SDS011;38103;42.776;23.112;2022-09-03T04:57:43;16.40;;;9.15;;
52104;SDS011;38103;42.776;23.112;2022-09-03T05:00:09;17.15;;;9.38;;
52104;SDS011;38103;42.776;23.112;2022-09-03T05:02:36;17.38;;;8.43;;
52104;SDS011;38103;42.776;23.112;2022-09-03T05:05:01;14.73;;;7.78;;
52104;SDS011;38103;42.776;23.112;2022-09-03T05:07:28;18.17;;;9.23;;
52104;SDS011;38103;42.776;23.112;2022-09-03T05:10:02;17.45;;;8.13;;
52104;SDS011;38103;42.776;23.112;2022-09-03T05:12:30;20.00;;;8.73;;
52104;SDS011;38103;42.776;23.112;2022-09-03T05:14:57;16.08;;;8.88;;
52104;SDS011;38103;42.776;23.112;2022-09-03T05:17:23;16.58;;;8.70;;
52104;SDS011;38103;42.776;23.112;2022-09-03T05:19:49;17.10;;;8.25;;
52104;SDS011;38103;42.776;23.112;2022-09-03T05:22:14;18.42;;;8.85;;
52104;SDS011;38103;42.776;23.112;2022-09-03T05:24:45;17.08;;;8.00;;
52104;SDS011;38103;42.776;23.112;2022-09-03T05:39:04;17.35;;;9.00;;
52104;SDS011;38103;42.776;23.112;2022-09-03T05:41:30;18.95;;;9.07;;
52104;SDS011;38103;42.776;23.112;2022-09-03T05:43:58;18.42;;;8.63;;
52104;SDS011;38103;42.776;23.112;2022-09-03T05:46:24;16.20;;;8.57;;
52104;SDS011;38103;42.776;23.112;2022-09-03T05:49:02;17.40;;;8.82;;
52104;SDS011;38103;42.776;23.112;2022-09-03T05:51:29;14.02;;;7.65;;
52104;SDS011;38103;42.776;23.112;2022-09-03T05:53:56;17.98;;;7.65;;
52104;SDS011;38103;42.776;23.112;2022-09-03T05:56:22;14.43;;;6.95;;
52104;SDS011;38103;42.776;23.112;2022-09-03T05:58:50;13.25;;;7.30;;
52104;SDS011;38103;42.776;23.112;2022-09-03T06:03:56;14.45;;;7.05;;
52104;SDS011;38103;42.776;23.112;2022-09-03T06:06:24;15.73;;;7.82;;
52104;SDS011;38103;42.776;23.112;2022-09-03T06:08:55;13.77;;;7.35;;
52104;SDS011;38103;42.776;23.112;2022-09-03T06:11:23;14.05;;;6.68;;
52104;SDS011;38103;42.776;23.112;2022-09-03T06:13:52;15.68;;;7.20;;
52104;SDS011;38103;42.776;23.112;2022-09-03T06:16:29;13.65;;;6.85;;
52104;SDS011;38103;42.776;23.112;2022-09-03T06:18:55;14.80;;;7.53;;
52104;SDS011;38103;42.776;23.112;2022-09-03T06:21:21;13.73;;;7.25;;
52104;SDS011;38103;42.776;23.112;2022-09-03T06:23:50;13.70;;;6.57;;
52104;SDS011;38103;42.776;23.112;2022-09-03T06:26:22;14.57;;;7.15;;
52104;SDS011;38103;42.776;23.112;2022-09-03T06:28:48;14.98;;;7.70;;
52104;SDS011;38103;42.776;23.112;2022-09-03T06:31:18;14.70;;;7.85;;
52104;SDS011;38103;42.776;23.112;2022-09-03T06:33:44;14.20;;;7.57;;
52104;SDS011;38103;42.776;23.112;2022-09-03T06:36:12;13.88;;;7.38;;
52104;SDS011;38103;42.776;23.112;2022-09-03T06:38:39;14.10;;;7.55;;
52104;SDS011;38103;42.776;23.112;2022-09-03T06:41:07;14.30;;;7.03;;
52104;SDS011;38103;42.776;23.112;2022-09-03T06:43:39;14.00;;;7.37;;
52104;SDS011;38103;42.776;23.112;2022-09-03T06:48:35;13.93;;;7.43;;
52104;SDS011;38103;42.776;23.112;2022-09-03T06:53:35;13.02;;;6.80;;
52104;SDS011;38103;42.776;23.112;2022-09-03T06:56:06;13.18;;;6.65;;
52104;SDS011;38103;42.776;23.112;2022-09-03T06:58:37;14.15;;;6.97;;
52104;SDS011;38103;42.776;23.112;2022-09-03T07:01:08;15.05;;;7.20;;
52104;SDS011;38103;42.776;23.112;2022-09-03T07:03:39;12.43;;;6.57;;
52104;SDS011;38103;42.776;23.112;2022-09-03T07:06:15;12.68;;;6.70;;
52104;SDS011;38103;42.776;23.112;2022-09-03T07:08:42;12.40;;;6.05;;
52104;SDS011;38103;42.776;23.112;2022-09-03T07:11:12;12.55;;;6.38;;
52104;SDS011;38103;42.776;23.112;2022-09-03T07:13:42;12.77;;;6.70;;
52104;SDS011;38103;42.776;23.112;2022-09-03T07:16:10;12.85;;;6.57;;
52104;SDS011;38103;42.776;23.112;2022-09-03T07:18:37;12.75;;;6.25;;
52104;SDS011;38103;42.776;23.112;2022-09-03T07:21:07;12.45;;;6.30;;
52104;SDS011;38103;42.776;23.112;2022-09-03T07:23:35;11.63;;;5.88;;
52104;SDS011;38103;42.776;23.112;2022-09-03T07:26:04;12.48;;;6.10;;
52104;SDS011;38103;42.776;23.112;2022-09-03T07:28:35;13.60;;;6.25;;
52104;SDS011;38103;42.776;23.112;2022-09-03T07:31:03;18.75;;;6.53;;
52104;SDS011;38103;42.776;23.112;2022-09-03T07:33:33;13.60;;;7.07;;
52104;SDS011;38103;42.776;23.112;2022-09-03T07:36:03;13.18;;;6.60;;
52104;SDS011;38103;42.776;23.112;2022-09-03T07:38:30;13.57;;;6.88;;
52104;SDS011;38103;42.776;23.112;2022-09-03T07:40:57;14.05;;;7.05;;
52104;SDS011;38103;42.776;23.112;2022-09-03T07:43:25;13.68;;;7.50;;
52104;SDS011;38103;42.776;23.112;2022-09-03T07:45:51;12.88;;;6.90;;
52104;SDS011;38103;42.776;23.112;2022-09-03T07:48:18;14.07;;;7.22;;
52104;SDS011;38103;42.776;23.112;2022-09-03T07:50:44;12.05;;;6.10;;
52104;SDS011;38103;42.776;23.112;2022-09-03T07:53:11;13.10;;;6.45;;
52104;SDS011;38103;42.776;23.112;2022-09-03T07:55:37;12.88;;;6.43;;
52104;SDS011;38103;42.776;23.112;2022-09-03T07:58:02;13.32;;;7.13;;
52104;SDS011;38103;42.776;23.112;2022-09-03T08:00:27;13.13;;;6.82;;
52104;SDS011;38103;42.776;23.112;2022-09-03T08:02:53;12.68;;;6.40;;
52104;SDS011;38103;42.776;23.112;2022-09-03T08:05:19;13.18;;;6.53;;
52104;SDS011;38103;42.776;23.112;2022-09-03T08:07:45;12.13;;;6.15;;
52104;SDS011;38103;42.776;23.112;2022-09-03T08:10:12;13.23;;;6.35;;
52104;SDS011;38103;42.776;23.112;2022-09-03T08:12:38;12.40;;;6.47;;
52104;SDS011;38103;42.776;23.112;2022-09-03T08:15:04;13.70;;;6.15;;
52104;SDS011;38103;42.776;23.112;2022-09-03T08:17:30;13.27;;;6.80;;
52104;SDS011;38103;42.776;23.112;2022-09-03T08:19:55;11.52;;;5.93;;
52104;SDS011;38103;42.776;23.112;2022-09-03T08:22:22;11.40;;;5.95;;
52104;SDS011;38103;42.776;23.112;2022-09-03T08:24:49;13.15;;;6.75;;
52104;SDS011;38103;42.776;23.112;2022-09-03T08:27:15;12.55;;;6.15;;
52104;SDS011;38103;42.776;23.112;2022-09-03T08:29:40;10.13;;;4.72;;
52104;SDS011;38103;42.776;23.112;2022-09-03T08:32:06;10.65;;;4.82;;
52104;SDS011;38103;42.776;23.112;2022-09-03T08:34:31;14.70;;;6.10;;
52104;SDS011;38103;42.776;23.112;2022-09-03T08:36:56;10.52;;;5.10;;
52104;SDS011;38103;42.776;23.112;2022-09-03T08:39:25;10.25;;;5.20;;
52104;SDS011;38103;42.776;23.112;2022-09-03T08:44:47;11.75;;;5.70;;
52104;SDS011;38103;42.776;23.112;2022-09-03T08:47:20;11.23;;;5.80;;
52104;SDS011;38103;42.776;23.112;2022-09-03T08:52:29;13.10;;;5.60;;
52104;SDS011;38103;42.776;23.112;2022-09-03T08:55:20;11.45;;;5.60;;
52104;SDS011;38103;42.776;23.112;2022-09-03T09:06:10;12.48;;;5.53;;
52104;SDS011;38103;42.776;23.112;2022-09-03T09:08:45;11.50;;;5.88;;
52104;SDS011;38103;42.776;23.112;2022-09-03T09:16:46;12.82;;;5.80;;
52104;SDS011;38103;42.776;23.112;2022-09-03T09:24:40;11.35;;;5.70;;
52104;SDS011;38103;42.776;23.112;2022-09-03T09:27:09;10.40;;;5.13;;
52104;SDS011;38103;42.776;23.112;2022-09-03T09:29:41;11.05;;;5.50;;
52104;SDS011;38103;42.776;23.112;2022-09-03T09:32:11;13.52;;;6.47;;
52104;SDS011;38103;42.776;23.112;2022-09-03T09:34:41;12.23;;;5.55;;
52104;SDS011;38103;42.776;23.112;2022-09-03T09:37:08;10.88;;;5.45;;
52104;SDS011;38103;42.776;23.112;2022-09-03T09:39:35;11.70;;;5.95;;
52104;SDS011;38103;42.776;23.112;2022-09-03T09:42:04;11.27;;;5.47;;
52104;SDS011;38103;42.776;23.112;2022-09-03T09:44:40;10.50;;;5.28;;
52104;SDS011;38103;42.776;23.112;2022-09-03T09:49:56;12.20;;;5.20;;
52104;SDS011;38103;42.776;23.112;2022-09-03T09:52:24;16.70;;;6.70;;
52104;SDS011;38103;42.776;23.112;2022-09-03T09:54:52;10.98;;;5.20;;
52104;SDS011;38103;42.776;23.112;2022-09-03T09:57:32;11.25;;;5.50;;
52104;SDS011;38103;42.776;23.112;2022-09-03T10:00:16;15.10;;;5.35;;
52104;SDS011;38103;42.776;23.112;2022-09-03T10:02:49;11.73;;;6.43;;
52104;SDS011;38103;42.776;23.112;2022-09-03T10:05:23;11.77;;;5.90;;
52104;SDS011;38103;42.776;23.112;2022-09-03T10:10:28;11.90;;;6.60;;
52104;SDS011;38103;42.776;23.112;2022-09-03T10:13:03;12.68;;;5.95;;
52104;SDS011;38103;42.776;23.112;2022-09-03T10:15:39;11.40;;;6.10;;
52104;SDS011;38103;42.776;23.112;2022-09-03T10:18:08;11.75;;;6.20;;
52104;SDS011;38103;42.776;23.112;2022-09-03T10:26:00;10.85;;;5.53;;
52104;SDS011;38103;42.776;23.112;2022-09-03T10:28:31;12.00;;;5.80;;
52104;SDS011;38103;42.776;23.112;2022-09-03T10:33:48;12.10;;;5.43;;
52104;SDS011;38103;42.776;23.112;2022-09-03T10:47:08;12.23;;;6.22;;
52104;SDS011;38103;42.776;23.112;2022-09-03T10:50:07;13.90;;;6.78;;
52104;SDS011;38103;42.776;23.112;2022-09-03T10:52:57;12.25;;;6.22;;
52104;SDS011;38103;42.776;23.112;2022-09-03T10:55:37;12.15;;;6.35;;
52104;SDS011;38103;42.776;23.112;2022-09-03T11:00:38;11.82;;;6.00;;
52104;SDS011;38103;42.776;23.112;2022-09-03T11:10:49;11.85;;;5.57;;
52104;SDS011;38103;42.776;23.112;2022-09-03T11:13:24;12.00;;;6.00;;
52104;SDS011;38103;42.776;23.112;2022-09-03T11:16:20;11.25;;;5.45;;
52104;SDS011;38103;42.776;23.112;2022-09-03T11:18:54;11.05;;;5.40;;
52104;SDS011;38103;42.776;23.112;2022-09-03T11:21:25;12.35;;;6.07;;
52104;SDS011;38103;42.776;23.112;2022-09-03T11:24:16;19.05;;;6.00;;
52104;SDS011;38103;42.776;23.112;2022-09-03T11:26:47;12.43;;;6.40;;
52104;SDS011;38103;42.776;23.112;2022-09-03T11:37:02;12.73;;;6.40;;
52104;SDS011;38103;42.776;23.112;2022-09-03T11:39:37;16.85;;;6.43;;
52104;SDS011;38103;42.776;23.112;2022-09-03T11:42:20;13.73;;;6.60;;
52104;SDS011;38103;42.776;23.112;2022-09-03T11:44:58;16.38;;;6.47;;
52104;SDS011;38103;42.776;23.112;2022-09-03T11:47:40;12.35;;;6.22;;
52104;SDS011;38103;42.776;23.112;2022-09-03T11:50:27;12.15;;;5.70;;
52104;SDS011;38103;42.776;23.112;2022-09-03T11:53:10;12.23;;;5.93;;
52104;SDS011;38103;42.776;23.112;2022-09-03T11:55:53;12.02;;;6.10;;
52104;SDS011;38103;42.776;23.112;2022-09-03T11:58:37;12.75;;;5.65;;
52104;SDS011;38103;42.776;23.112;2022-09-03T12:01:07;12.43;;;6.10;;
52104;SDS011;38103;42.776;23.112;2022-09-03T12:03:44;14.55;;;6.25;;
52104;SDS011;38103;42.776;23.112;2022-09-03T12:20:12;11.73;;;5.75;;
52104;SDS011;38103;42.776;23.112;2022-09-03T12:22:39;11.88;;;5.53;;
52104;SDS011;38103;42.776;23.112;2022-09-03T12:25:09;11.82;;;5.78;;
52104;SDS011;38103;42.776;23.112;2022-09-03T12:27:45;11.02;;;4.80;;
52104;SDS011;38103;42.776;23.112;2022-09-03T12:30:17;10.57;;;5.00;;
52104;SDS011;38103;42.776;23.112;2022-09-03T12:32:46;10.50;;;4.78;;
52104;SDS011;38103;42.776;23.112;2022-09-03T12:37:42;11.07;;;5.15;;
52104;SDS011;38103;42.776;23.112;2022-09-03T12:40:18;10.68;;;4.80;;
52104;SDS011;38103;42.776;23.112;2022-09-03T12:42:45;10.15;;;4.47;;
52104;SDS011;38103;42.776;23.112;2022-09-03T12:45:11;11.77;;;4.80;;
52104;SDS011;38103;42.776;23.112;2022-09-03T12:47:40;13.25;;;5.00;;
52104;SDS011;38103;42.776;23.112;2022-09-03T12:50:11;10.57;;;4.50;;
52104;SDS011;38103;42.776;23.112;2022-09-03T12:53:13;12.68;;;4.55;;
52104;SDS011;38103;42.776;23.112;2022-09-03T12:55:37;10.27;;;4.32;;
52104;SDS011;38103;42.776;23.112;2022-09-03T12:58:18;11.57;;;4.72;;
52104;SDS011;38103;42.776;23.112;2022-09-03T13:03:41;9.98;;;4.50;;
52104;SDS011;38103;42.776;23.112;2022-09-03T13:06:20;10.45;;;4.70;;
52104;SDS011;38103;42.776;23.112;2022-09-03T13:08:52;9.50;;;3.80;;
52104;SDS011;38103;42.776;23.112;2022-09-03T13:11:21;9.75;;;3.90;;
52104;SDS011;38103;42.776;23.112;2022-09-03T13:13:59;9.15;;;3.78;;
52104;SDS011;38103;42.776;23.112;2022-09-03T13:16:35;9.50;;;3.92;;
52104;SDS011;38103;42.776;23.112;2022-09-03T13:27:53;9.32;;;3.53;;
52104;SDS011;38103;42.776;23.112;2022-09-03T13:33:42;8.70;;;3.50;;
52104;SDS011;38103;42.776;23.112;2022-09-03T13:36:13;10.05;;;3.38;;
52104;SDS011;38103;42.776;23.112;2022-09-03T13:38:50;8.60;;;3.15;;
52104;SDS011;38103;42.776;23.112;2022-09-03T13:41:37;9.65;;;3.40;;
52104;SDS011;38103;42.776;23.112;2022-09-03T13:44:09;10.43;;;3.40;;
52104;SDS011;38103;42.776;23.112;2022-09-03T13:49:46;9.93;;;3.35;;
52104;SDS011;38103;42.776;23.112;2022-09-03T13:52:40;9.20;;;3.53;;
52104;SDS011;38103;42.776;23.112;2022-09-03T13:55:24;12.45;;;3.90;;
52104;SDS011;38103;42.776;23.112;2022-09-03T13:58:30;12.45;;;3.55;;
52104;SDS011;38103;42.776;23.112;2022-09-03T14:01:06;9.95;;;4.13;;
52104;SDS011;38103;42.776;23.112;2022-09-03T14:03:47;9.48;;;3.67;;
52104;SDS011;38103;42.776;23.112;2022-09-03T14:06:23;9.05;;;3.60;;
52104;SDS011;38103;42.776;23.112;2022-09-03T14:09:11;9.55;;;3.85;;
52104;SDS011;38103;42.776;23.112;2022-09-03T14:20:03;10.25;;;4.15;;
52104;SDS011;38103;42.776;23.112;2022-09-03T14:25:22;9.60;;;3.80;;
52104;SDS011;38103;42.776;23.112;2022-09-03T14:27:50;8.98;;;3.58;;
52104;SDS011;38103;42.776;23.112;2022-09-03T14:37:48;9.77;;;4.13;;
52104;SDS011;38103;42.776;23.112;2022-09-03T14:40:45;12.32;;;4.32;;
52104;SDS011;38103;42.776;23.112;2022-09-03T15:05:05;10.43;;;4.20;;
52104;SDS011;38103;42.776;23.112;2022-09-03T15:07:47;10.55;;;4.47;;
52104;SDS011;38103;42.776;23.112;2022-09-03T15:10:20;13.55;;;4.60;;
52104;SDS011;38103;42.776;23.112;2022-09-03T15:15:32;10.48;;;4.78;;
52104;SDS011;38103;42.776;23.112;2022-09-03T15:32:59;12.38;;;4.88;;
52104;SDS011;38103;42.776;23.112;2022-09-03T15:35:32;11.55;;;4.60;;
52104;SDS011;38103;42.776;23.112;2022-09-03T15:38:05;11.40;;;5.10;;
52104;SDS011;38103;42.776;23.112;2022-09-03T15:43:18;12.90;;;5.53;;
52104;SDS011;38103;42.776;23.112;2022-09-03T15:45:53;11.50;;;5.35;;
52104;SDS011;38103;42.776;23.112;2022-09-03T15:54:21;12.07;;;5.35;;
52104;SDS011;38103;42.776;23.112;2022-09-03T15:57:05;13.65;;;5.75;;
52104;SDS011;38103;42.776;23.112;2022-09-03T15:59:39;12.23;;;5.40;;
52104;SDS011;38103;42.776;23.112;2022-09-03T16:02:11;12.35;;;5.32;;
52104;SDS011;38103;42.776;23.112;2022-09-03T16:07:47;10.73;;;4.90;;
52104;SDS011;38103;42.776;23.112;2022-09-03T16:10:25;12.93;;;5.60;;
52104;SDS011;38103;42.776;23.112;2022-09-03T16:13:03;12.60;;;5.63;;
52104;SDS011;38103;42.776;23.112;2022-09-03T16:15:48;11.70;;;5.82;;
52104;SDS011;38103;42.776;23.112;2022-09-03T16:18:24;12.60;;;5.55;;
52104;SDS011;38103;42.776;23.112;2022-09-03T16:21:02;12.57;;;6.10;;
52104;SDS011;38103;42.776;23.112;2022-09-03T16:23:39;11.77;;;5.68;;
52104;SDS011;38103;42.776;23.112;2022-09-03T16:26:33;16.08;;;6.35;;
52104;SDS011;38103;42.776;23.112;2022-09-03T16:34:18;12.38;;;5.95;;
52104;SDS011;38103;42.776;23.112;2022-09-03T16:50:33;12.68;;;5.63;;
52104;SDS011;38103;42.776;23.112;2022-09-03T16:53:00;11.30;;;5.55;;
52104;SDS011;38103;42.776;23.112;2022-09-03T17:15:45;13.07;;;6.32;;
52104;SDS011;38103;42.776;23.112;2022-09-03T17:26:28;14.68;;;6.90;;
52104;SDS011;38103;42.776;23.112;2022-09-03T17:29:23;14.55;;;6.78;;
52104;SDS011;38103;42.776;23.112;2022-09-03T17:34:42;14.85;;;7.38;;
52104;SDS011;38103;42.776;23.112;2022-09-03T17:53:18;18.40;;;7.25;;
52104;SDS011;38103;42.776;23.112;2022-09-03T17:55:59;14.63;;;7.50;;
52104;SDS011;38103;42.776;23.112;2022-09-03T17:58:33;17.60;;;6.97;;
52104;SDS011;38103;42.776;23.112;2022-09-03T18:01:14;14.15;;;7.53;;
52104;SDS011;38103;42.776;23.112;2022-09-03T18:09:39;16.30;;;7.80;;
52104;SDS011;38103;42.776;23.112;2022-09-03T18:11:40;15.43;;;7.55;;
52104;SDS011;38103;42.776;23.112;2022-09-03T18:14:23;16.08;;;7.30;;
52104;SDS011;38103;42.776;23.112;2022-09-03T18:17:00;14.45;;;7.47;;
52104;SDS011;38103;42.776;23.112;2022-09-03T18:19:33;16.70;;;7.32;;
52104;SDS011;38103;42.776;23.112;2022-09-03T18:22:28;15.75;;;7.95;;
52104;SDS011;38103;42.776;23.112;2022-09-03T18:25:19;16.13;;;7.43;;
52104;SDS011;38103;42.776;23.112;2022-09-03T18:28:08;15.88;;;8.02;;
52104;SDS011;38103;42.776;23.112;2022-09-03T18:30:56;17.73;;;7.60;;
52104;SDS011;38103;42.776;23.112;2022-09-03T18:33:40;14.13;;;7.30;;
52104;SDS011;38103;42.776;23.112;2022-09-03T18:36:25;15.32;;;7.65;;
52104;SDS011;38103;42.776;23.112;2022-09-03T18:39:25;15.57;;;7.15;;
52104;SDS011;38103;42.776;23.112;2022-09-03T18:45:17;18.65;;;7.50;;
52104;SDS011;38103;42.776;23.112;2022-09-03T18:51:23;30.45;;;13.80;;
52104;SDS011;38103;42.776;23.112;2022-09-03T19:07:30;15.32;;;7.22;;
52104;SDS011;38103;42.776;23.112;2022-09-03T19:10:47;17.27;;;8.20;;
52104;SDS011;38103;42.776;23.112;2022-09-03T19:13:34;14.63;;;7.63;;
52104;SDS011;38103;42.776;23.112;2022-09-03T19:22:53;18.08;;;8.25;;
52104;SDS011;38103;42.776;23.112;2022-09-03T19:25:37;17.08;;;7.70;;
52104;SDS011;38103;42.776;23.112;2022-09-03T19:28:22;15.82;;;7.78;;
52104;SDS011;38103;42.776;23.112;2022-09-03T19:37:24;17.77;;;7.75;;
52104;SDS011;38103;42.776;23.112;2022-09-03T19:52:22;19.92;;;8.63;;
52104;SDS011;38103;42.776;23.112;2022-09-03T19:55:18;17.83;;;8.50;;
52104;SDS011;38103;42.776;23.112;2022-09-03T19:58:07;19.67;;;7.82;;
52104;SDS011;38103;42.776;23.112;2022-09-03T20:00:52;17.40;;;7.70;;
52104;SDS011;38103;42.776;23.112;2022-09-03T20:03:36;17.00;;;7.93;;
52104;SDS011;38103;42.776;23.112;2022-09-03T20:06:20;19.73;;;9.15;;
52104;SDS011;38103;42.776;23.112;2022-09-03T20:09:06;16.05;;;8.13;;
52104;SDS011;38103;42.776;23.112;2022-09-03T20:11:53;19.08;;;8.35;;
52104;SDS011;38103;42.776;23.112;2022-09-03T20:14:21;17.65;;;8.30;;
52104;SDS011;38103;42.776;23.112;2022-09-03T20:16:56;18.30;;;8.73;;
52104;SDS011;38103;42.776;23.112;2022-09-03T20:19:59;17.75;;;8.27;;
52104;SDS011;38103;42.776;23.112;2022-09-03T20:30:19;16.70;;;8.65;;
52104;SDS011;38103;42.776;23.112;2022-09-03T20:40:59;17.23;;;7.70;;
52104;SDS011;38103;42.776;23.112;2022-09-03T20:49:55;16.17;;;7.90;;
52104;SDS011;38103;42.776;23.112;2022-09-03T20:52:04;18.63;;;7.70;;
52104;SDS011;38103;42.776;23.112;2022-09-03T20:54:36;17.95;;;7.88;;
52104;SDS011;38103;42.776;23.112;2022-09-03T20:57:15;19.95;;;8.73;;
52104;SDS011;38103;42.776;23.112;2022-09-03T21:05:02;17.92;;;8.73;;
52104;SDS011;38103;42.776;23.112;2022-09-03T21:13:19;16.67;;;8.05;;
52104;SDS011;38103;42.776;23.112;2022-09-03T21:15:57;17.10;;;8.20;;
52104;SDS011;38103;42.776;23.112;2022-09-03T21:23:48;18.20;;;8.40;;
52104;SDS011;38103;42.776;23.112;2022-09-03T21:26:29;15.57;;;8.30;;
52104;SDS011;38103;42.776;23.112;2022-09-03T21:29:05;16.50;;;8.80;;
52104;SDS011;38103;42.776;23.112;2022-09-03T21:34:11;16.60;;;7.90;;
52104;SDS011;38103;42.776;23.112;2022-09-03T21:36:49;16.50;;;8.35;;